Latest Weather Observations for Gympie

IDQ60901

Issued at 8:35 pm EST Tuesday 29 July 2014 (issued every 10 minutes, with the page automatically refreshed every 10 minutes)

About weather observations | Map of Brisbane area stations | Latest observations for Brisbane area | Other Formats
Station Details ID: 040093 Name: GYMPIE Lat: -26.18 Lon: 152.64 Height: 64.5 m
Data from the previous 72 hours. | See also: Recent months at Gympie
Date/Time
EST
Tmp

°C
App
Tmp
°C
Dew
Point
°C
Rel
Hum
%
Delta-T

°C
Wind Press
QNH
hPa
Press
MSL
hPa
Rain
since
9 am
mm
Dir
 
Spd
km/h
Gust
km/h
Spd
kts
Gust
kts
29/08:30pm 13.1 12.6 9.5 79 1.8 N 2 4 1 2 1021.6 - 0.0
29/08:00pm 14.0 13.2 9.8 76 2.2 N 4 6 2 3 1021.5 1021.5 0.0
29/07:30pm 15.0 14.6 9.8 71 2.7 SSE 2 4 1 2 1021.2 - 0.0
29/07:00pm 18.1 17.3 11.2 64 3.7 NNE 6 11 3 6 1020.5 1020.5 0.0
29/06:30pm 18.8 17.7 10.6 59 4.4 NNE 7 11 4 6 1020.2 - 0.0
29/06:00pm 18.4 16.9 6.6 46 5.9 NNE 4 4 2 2 1019.6 1019.6 0.0
29/05:30pm 20.0 18.2 5.6 39 7.1 N 4 6 2 3 1019.4 - 0.0
29/05:00pm 23.6 22.3 4.0 28 9.6 CALM 0 2 0 1 1019.1 1019.1 0.0
29/04:30pm 24.7 23.3 3.4 25 10.4 CALM 0 0 0 0 1019.1 - 0.0
29/04:00pm 25.6 23.7 2.9 23 11.1 WNW 2 4 1 2 1019.0 1019.0 0.0
29/03:30pm 26.1 23.6 4.0 24 11.1 W 6 13 3 7 1018.8 - 0.0
29/03:00pm 25.9 23.5 4.4 25 10.8 WSW 6 11 3 6 1018.8 1018.8 0.0
29/02:30pm 25.4 23.4 4.5 26 10.5 W 4 15 2 8 1018.9 - 0.0
29/02:00pm 24.8 21.7 5.6 29 9.8 NNW 11 22 6 12 1019.2 1019.2 0.0
29/01:30pm 24.5 21.8 5.8 30 9.6 W 9 19 5 10 1019.8 - 0.0
29/01:00pm 24.1 22.4 8.5 37 8.3 WNW 7 15 4 8 1020.2 1020.2 0.0
29/12:30pm 23.2 21.3 8.9 40 7.7 N 9 17 5 9 1020.7 - 0.0
29/12:00pm 22.3 20.1 9.5 44 6.9 N 11 17 6 9 1021.3 1021.3 0.0
29/11:30am 21.4 19.0 9.9 48 6.2 N 13 22 7 12 1022.0 - 0.0
29/11:00am 21.6 20.3 11.3 52 5.7 NW 9 17 5 9 1022.6 1022.6 0.0
29/10:30am 20.3 19.4 11.5 57 4.9 NW 7 17 4 9 1022.9 - 0.0
29/10:00am 16.1 16.1 9.8 66 3.3 CALM 0 2 0 1 1023.4 1023.3 0.0
29/09:30am 14.0 13.8 9.2 73 2.5 CALM 0 4 0 2 1023.8 - 0.0
29/09:00am 10.9 10.1 8.0 82 1.4 SE 2 4 1 2 1024.1 1024.0 0.0
29/08:30am 8.9 8.3 7.4 90 0.7 CALM 0 4 0 2 1024.1 - 0.0
29/08:00am 6.3 5.4 6.2 99 0.0 CALM 0 2 0 1 1024.0 1023.9 0.0
29/07:30am 4.8 3.6 4.7 99 0.0 CALM 0 0 0 0 1023.8 - 0.0
29/07:00am 3.4 2.0 3.3 99 0.0 CALM 0 0 0 0 1023.5 1023.4 0.0
29/06:30am 3.5 2.1 3.4 99 0.0 CALM 0 0 0 0 1023.3 - 0.0
29/06:00am 3.5 2.1 3.4 99 0.0 N 0 0 0 0 1022.7 1022.7 0.0
29/05:30am 3.8 2.4 3.5 98 0.1 CALM 0 0 0 0 1022.2 - 0.0
29/05:00am 4.2 2.9 4.1 99 0.0 CALM 0 0 0 0 1022.0 1022.0 0.0
29/04:30am 4.2 2.9 4.1 99 0.0 CALM 0 0 0 0 1021.8 - 0.0
29/04:00am 4.7 3.5 4.6 99 0.0 CALM 0 0 0 0 1021.7 1021.7 0.0
29/03:30am 5.0 3.9 4.9 99 0.0 CALM 0 0 0 0 1021.8 - 0.0
29/03:00am 5.0 3.8 4.7 98 0.1 CALM 0 0 0 0 1021.8 1021.8 0.0
29/02:30am 5.5 4.4 5.1 97 0.2 CALM 0 0 0 0 1022.0 - 0.0
29/02:00am 5.8 4.8 5.4 97 0.2 CALM 0 0 0 0 1022.1 1022.1 0.0
29/01:30am 6.2 5.2 5.8 97 0.2 CALM 0 0 0 0 1022.1 - 0.0
29/01:00am 6.5 5.6 5.9 96 0.3 CALM 0 0 0 0 1022.4 1022.4 0.0
29/12:30am 6.8 5.9 6.2 96 0.3 CALM 0 4 0 2 1022.6 - 0.0
29/12:00am 7.4 6.6 6.7 95 0.3 N 0 0 0 0 1022.8 1022.8 0.0
 
Date/Time
EST
Tmp

°C
App
Tmp
°C
Dew
Point
°C
Rel
Hum
%
Delta-T

°C
Wind Press
QNH
hPa
Press
MSL
hPa
Rain
since
9 am
mm
Dir
 
Spd
km/h
Gust
km/h
Spd
kts
Gust
kts
28/11:30pm 7.5 6.7 6.3 92 0.5 CALM 0 0 0 0 1022.9 - 0.0
28/11:00pm 8.1 7.4 7.0 93 0.5 CALM 0 0 0 0 1022.8 1022.8 0.0
28/10:30pm 8.9 8.4 7.7 92 0.6 CALM 0 0 0 0 1022.9 - 0.0
28/10:00pm 8.7 8.0 6.8 88 0.9 CALM 0 0 0 0 1022.9 1022.9 0.0
28/09:30pm 9.6 9.0 7.4 86 1.0 CALM 0 0 0 0 1022.7 - 0.0
28/09:00pm 10.9 10.5 8.3 84 1.3 CALM 0 0 0 0 1022.5 1022.5 0.0
28/08:30pm 11.8 11.5 8.5 80 1.6 CALM 0 0 0 0 1022.4 - 0.0
28/08:00pm 12.8 12.6 8.9 77 2.0 CALM 0 0 0 0 1022.0 1022.0 0.0
28/07:30pm 13.1 12.3 6.7 65 3.1 CALM 0 0 0 0 1021.8 - 0.0
28/07:00pm 15.3 14.4 7.8 61 3.7 NNE 2 4 1 2 1021.5 1021.5 0.0
28/06:30pm 15.6 14.8 8.1 61 3.8 SSW 2 4 1 2 1021.1 - 0.0
28/06:00pm 17.2 15.2 4.2 42 6.1 N 4 6 2 3 1020.6 1020.6 0.0
28/05:30pm 18.9 16.7 3.5 36 7.3 N 4 7 2 4 1020.2 - 0.0
28/05:00pm 22.6 20.9 1.6 25 9.8 CALM 0 2 0 1 1020.1 1020.1 0.0
28/04:30pm 23.5 21.2 2.9 26 9.9 NW 4 7 2 4 1020.0 - 0.0
28/04:00pm 23.9 21.3 0.9 22 10.7 WNW 4 9 2 5 1019.9 1019.9 0.0
28/03:30pm 23.9 21.0 2.7 25 10.2 WNW 7 11 4 6 1019.9 - 0.0
28/03:00pm 23.6 20.6 1.9 24 10.2 NNW 7 13 4 7 1019.8 1019.8 0.0
28/02:30pm 23.5 19.4 2.4 25 10.1 NW 13 19 7 10 1020.0 - 0.0
28/02:00pm 23.4 20.4 3.9 28 9.5 NW 9 19 5 10 1020.4 1020.4 0.0
28/01:30pm 23.5 21.7 5.4 31 9.1 N 4 17 2 9 1020.9 - 0.0
28/01:00pm 22.7 20.5 5.2 32 8.7 W 6 11 3 6 1021.4 1021.4 0.0
28/12:30pm 21.7 19.5 6.4 37 7.8 SSW 7 13 4 7 1021.9 - 0.0
28/12:00pm 21.6 19.3 5.9 36 7.9 WNW 7 15 4 8 1022.6 1022.6 0.0
28/11:30am 20.9 17.9 6.1 38 7.4 NNW 11 22 6 12 1023.3 - 0.0
28/11:00am 20.1 19.2 9.4 50 5.7 WSW 4 11 2 6 1023.9 1023.8 0.0
28/10:30am 18.7 19.2 11.5 63 4.0 CALM 0 4 0 2 1024.3 - 0.0
28/10:00am 16.5 16.3 10.6 68 3.1 S 2 4 1 2 1024.6 1024.5 0.0
28/09:30am 14.1 14.1 9.7 75 2.3 CALM 0 0 0 0 1024.9 - 0.0
28/09:00am 11.7 11.4 8.7 82 1.5 CALM 0 0 0 0 1024.8 1024.7 0.0
28/08:30am 9.7 9.2 8.0 89 0.8 CALM 0 0 0 0 1024.7 - 0.0
28/08:00am 7.9 7.3 7.3 96 0.3 CALM 0 0 0 0 1024.7 1024.6 0.0
28/07:30am 5.3 4.2 5.0 98 0.1 CALM 0 0 0 0 1024.5 - 0.0
28/07:00am 4.2 2.9 4.1 99 0.0 CALM 0 0 0 0 1024.5 1024.4 0.0
28/06:30am 3.9 2.5 3.8 99 0.0 CALM 0 0 0 0 1024.1 - 0.0
28/06:00am 4.3 3.0 4.2 99 0.0 CALM 0 0 0 0 1023.8 1023.7 0.0
28/05:30am 4.4 3.1 4.3 99 0.0 CALM 0 0 0 0 1023.6 - 0.0
28/05:00am 4.6 3.4 4.5 99 0.0 CALM 0 0 0 0 1023.3 1023.2 0.0
28/04:30am 5.0 3.8 4.7 98 0.1 CALM 0 0 0 0 1023.1 - 0.0
28/04:00am 5.2 4.1 4.9 98 0.1 CALM 0 0 0 0 1022.9 1022.9 0.0
28/03:30am 5.3 4.2 5.0 98 0.1 CALM 0 0 0 0 1022.9 - 0.0
28/03:00am 5.5 4.4 5.2 98 0.1 CALM 0 0 0 0 1022.9 1022.9 0.0
28/02:30am 6.3 5.4 6.0 98 0.1 CALM 0 0 0 0 1023.1 - 0.0
28/02:00am 6.2 5.3 5.9 98 0.1 CALM 0 0 0 0 1023.3 1023.2 0.0
28/01:30am 6.3 5.4 5.9 97 0.2 CALM 0 0 0 0 1023.5 - 0.0
28/01:00am 6.9 5.7 6.5 97 0.2 N 2 4 1 2 1023.9 1023.8 0.0
28/12:30am 6.9 6.1 6.5 97 0.2 CALM 0 0 0 0 1023.8 - 0.0
28/12:00am 7.4 6.7 7.0 97 0.2 CALM 0 0 0 0 1023.7 1023.6 0.0
 
Date/Time
EST
Tmp

°C
App
Tmp
°C
Dew
Point
°C
Rel
Hum
%
Delta-T

°C
Wind Press
QNH
hPa
Press
MSL
hPa
Rain
since
9 am
mm
Dir
 
Spd
km/h
Gust
km/h
Spd
kts
Gust
kts
27/11:30pm 8.1 7.5 7.5 96 0.3 CALM 0 0 0 0 1023.9 - 0.0
27/11:00pm 8.5 8.0 7.9 96 0.3 CALM 0 0 0 0 1023.9 1023.8 0.0
27/10:30pm 8.9 8.4 8.0 94 0.4 CALM 0 0 0 0 1024.0 - 0.0
27/10:00pm 9.3 8.9 8.4 94 0.4 CALM 0 0 0 0 1024.0 1023.9 0.0
27/09:30pm 10.2 9.9 8.8 91 0.7 CALM 0 0 0 0 1023.8 - 0.0
27/09:00pm 11.1 11.0 9.4 89 0.9 CALM 0 0 0 0 1023.7 1023.6 0.0
27/08:30pm 11.4 10.5 9.3 87 1.1 N 4 6 2 3 1023.7 - 0.0
27/08:00pm 12.9 12.2 10.1 83 1.4 N 4 6 2 3 1023.5 1023.4 0.0
27/07:30pm 14.0 13.4 10.4 79 1.9 NNW 4 4 2 2 1023.3 - 0.0
27/07:00pm 14.7 14.8 10.1 74 2.4 CALM 0 0 0 0 1022.8 1022.8 0.0
27/06:30pm 17.0 16.7 10.1 64 3.7 ENE 2 4 1 2 1022.5 - 0.0
27/06:00pm 18.5 17.6 10.6 60 4.2 E 6 9 3 5 1021.9 1021.9 0.0
27/05:30pm 19.5 17.9 10.2 55 5.0 E 9 13 5 7 1021.4 - 0.0
27/05:00pm 21.9 19.4 3.6 30 8.8 S 6 11 3 6 1020.7 1020.7 0.0
27/04:30pm 22.9 20.1 2.9 27 9.6 S 7 13 4 7 1020.4 - 0.0
27/04:00pm 23.6 20.9 3.5 27 9.8 S 7 15 4 8 1020.4 1020.4 0.0
27/03:30pm 24.0 20.8 3.3 26 10.1 S 9 17 5 9 1020.3 - 0.0
27/03:00pm 23.9 20.7 3.2 26 10.0 S 9 17 5 9 1020.4 1020.4 0.0
27/02:30pm 24.2 21.2 4.0 27 10.0 S 9 19 5 10 1020.4 - 0.0
27/02:00pm 23.9 20.8 3.8 27 9.8 S 9 17 5 9 1020.4 1020.4 0.0
27/01:30pm 23.8 20.0 3.7 27 9.8 S 13 22 7 12 1020.8 - 0.0
27/01:00pm 23.7 19.9 2.0 24 10.3 SSW 11 24 6 13 1021.2 1021.2 0.0
27/12:30pm 23.6 19.6 3.0 26 9.9 S 13 20 7 11 1021.5 - 0.0
27/12:00pm 23.4 19.6 3.9 28 9.5 SSW 13 22 7 12 1021.9 1021.9 0.0
27/11:30am 23.3 20.0 4.3 29 9.4 SW 11 19 6 10 1022.6 - 0.0
27/11:00am 22.8 19.4 5.7 33 8.6 SW 13 20 7 11 1023.2 1023.1 0.0
27/10:30am 21.6 20.3 9.8 47 6.4 SW 7 15 4 8 1023.6 - 0.0
27/10:00am 19.2 19.7 14.0 72 3.0 NNW 4 6 2 3 1024.0 1023.9 0.0
27/09:30am 16.2 18.0 15.4 95 0.5 CALM 0 2 0 1 1024.3 - 0.0
27/09:00am 13.6 14.3 13.4 99 0.1 N 2 4 1 2 1024.3 1024.2 0.2
27/08:30am 11.9 12.1 11.7 99 0.1 SE 2 4 1 2 1024.2 - 0.2
27/08:00am 11.2 11.5 11.0 99 0.1 CALM 0 0 0 0 1024.1 1024.0 0.2
27/07:30am 10.9 11.1 10.7 99 0.1 CALM 0 0 0 0 1023.8 - 0.2
27/07:00am 10.7 10.9 10.5 99 0.1 CALM 0 0 0 0 1023.8 1023.7 0.2
27/06:30am 11.0 11.3 10.8 99 0.1 CALM 0 0 0 0 1023.5 - 0.2
27/06:00am 10.9 10.8 10.7 99 0.1 SSW 2 2 1 1 1023.3 1023.2 0.2
27/05:30am 11.1 11.4 10.9 99 0.1 CALM 0 2 0 1 1022.8 - 0.2
27/05:00am 11.4 11.8 11.2 99 0.1 CALM 0 0 0 0 1022.8 1022.8 0.0
27/04:30am 11.6 12.0 11.4 99 0.1 CALM 0 0 0 0 1022.7 - 0.0
27/04:00am 11.4 11.8 11.2 99 0.1 CALM 0 0 0 0 1022.7 1022.7 0.0
27/03:30am 11.8 12.3 11.6 99 0.1 CALM 0 0 0 0 1022.8 - 0.0
27/03:00am 11.8 12.3 11.6 99 0.1 CALM 0 0 0 0 1022.9 1022.9 0.0
27/02:30am 12.6 13.4 12.4 99 0.1 CALM 0 0 0 0 1023.1 - 0.0
27/02:00am 13.2 14.1 13.0 99 0.1 CALM 0 0 0 0 1023.3 1023.2 0.0
27/01:30am 13.3 14.2 13.0 98 0.2 CALM 0 0 0 0 1023.5 - 0.0
27/01:00am 13.8 14.6 13.6 99 0.1 NNE 2 4 1 2 1023.6 1023.5 0.0
27/12:30am 14.1 15.3 13.9 99 0.1 CALM 0 0 0 0 1024.1 - 0.0
27/12:00am 14.0 15.2 13.7 98 0.2 CALM 0 0 0 0 1024.3 1024.2 0.0
 
Date/Time
EST
Tmp

°C
App
Tmp
°C
Dew
Point
°C
Rel
Hum
%
Delta-T

°C
Wind Press
QNH
hPa
Press
MSL
hPa
Rain
since
9 am
mm
Dir
 
Spd
km/h
Gust
km/h
Spd
kts
Gust
kts
26/11:30pm 14.5 15.8 14.0 97 0.3 CALM 0 0 0 0 1024.3 - 0.0
26/11:00pm 14.9 16.0 14.6 98 0.2 W 2 2 1 1 1024.6 1024.5 0.0
26/10:30pm 15.1 16.6 14.6 97 0.3 CALM 0 0 0 0 1024.5 - 0.0
26/10:00pm 14.9 16.3 14.3 96 0.3 CALM 0 0 0 0 1024.5 1024.4 0.0
26/09:30pm 15.1 16.5 14.5 96 0.3 CALM 0 0 0 0 1024.6 - 0.0
26/09:00pm 15.3 16.8 14.7 96 0.3 CALM 0 0 0 0 1024.9 1024.8 0.0

Latest Capital City Observations: Canberra | Sydney | Melbourne | Brisbane | Adelaide | Perth | Hobart | Darwin

Other Formats:

Comma delimited format used in spreadsheet applications
http://www.bom.gov.au/fwo/IDQ60901/IDQ60901.94566.axf

JavaScript Object Notation format (JSON) in row-major order
http://www.bom.gov.au/fwo/IDQ60901/IDQ60901.94566.json